Time;durP1;ratioP1;P1;durP2;ratioP2;P2;SDS_P1;SDS_P2;PMS_P1;PMS_P2;Temp;Humidity;BMP_temperature;BMP_pressure;BME280_temperature;BME280_humidity;BME280_pressure;Samples;Min_cycle;Max_cycle;Signal;HPM_P1;HPM_P2
2024/03/16 00:00:46;;;;;;;4.90;2.60;;;;;;;;;;5035451;28;20181;-85
2024/03/16 00:03:51;;;;;;;4.97;2.70;;;;;;;;;;5035388;28;20216;-85
2024/03/16 00:06:55;;;;;;;4.73;2.73;;;;;;;;;;5035464;28;20176;-85
2024/03/16 00:09:59;;;;;;;4.17;2.67;;;;;;;;;;5036124;28;20177;-85
2024/03/16 00:13:06;;;;;;;2.53;2.33;;;;;;;;;;5034718;28;20217;-85
2024/03/16 00:16:11;;;;;;;2.83;2.23;;;;;;;;;;5023998;28;20181;-85
2024/03/16 00:19:15;;;;;;;3.00;2.50;;;;;;;;;;5035285;28;20637;-85
2024/03/16 00:22:19;;;;;;;2.50;2.20;;;;;;;;;;5035706;28;20217;-85
2024/03/16 00:25:25;;;;;;;4.20;2.50;;;;;;;;;;5035744;28;20185;-85
2024/03/16 00:28:29;;;;;;;4.80;2.60;;;;;;;;;;5035819;28;20185;-85
2024/03/16 00:31:35;;;;;;;2.30;1.93;;;;;;;;;;5035558;28;20204;-86
2024/03/16 00:34:39;;;;;;;4.60;2.17;;;;;;;;;;5035414;28;20177;-85
2024/03/16 00:37:45;;;;;;;3.23;2.20;;;;;;;;;;5034579;28;20181;-85
2024/03/16 00:40:49;;;;;;;2.77;1.90;;;;;;;;;;5035302;28;20645;-85
2024/03/16 00:43:53;;;;;;;2.83;2.10;;;;;;;;;;5034557;28;20220;-85
2024/03/16 00:46:57;;;;;;;2.77;1.87;;;;;;;;;;5035428;28;20185;-86
2024/03/16 00:50:02;;;;;;;3.30;2.00;;;;;;;;;;5023234;28;20180;-85
2024/03/16 00:53:06;;;;;;;3.57;2.53;;;;;;;;;;5034306;28;20697;-85
2024/03/16 00:56:09;;;;;;;4.80;2.00;;;;;;;;;;5034221;28;20177;-85
2024/03/16 00:59:14;;;;;;;5.50;2.53;;;;;;;;;;5035217;28;20181;-85
2024/03/16 01:02:18;;;;;;;5.80;2.30;;;;;;;;;;5034310;28;20217;-85
2024/03/16 01:05:23;;;;;;;3.77;2.20;;;;;;;;;;5034447;28;20177;-85
2024/03/16 01:08:27;;;;;;;4.33;2.90;;;;;;;;;;5035084;28;20184;-85
2024/03/16 01:11:32;;;;;;;4.90;2.77;;;;;;;;;;5035242;28;20204;-85
2024/03/16 01:14:36;;;;;;;3.57;3.20;;;;;;;;;;5022636;28;20181;-85
2024/03/16 01:17:40;;;;;;;4.70;2.50;;;;;;;;;;5034307;28;20184;-85
2024/03/16 01:20:45;;;;;;;3.63;2.50;;;;;;;;;;5033830;28;20177;-85
2024/03/16 01:23:49;;;;;;;4.33;2.40;;;;;;;;;;5033801;28;20228;-86
2024/03/16 01:26:53;;;;;;;3.60;2.40;;;;;;;;;;5023869;28;20185;-85
2024/03/16 01:29:57;;;;;;;3.53;2.60;;;;;;;;;;5024063;28;20176;-85
2024/03/16 01:33:01;;;;;;;4.17;2.30;;;;;;;;;;5035477;28;20216;-84
2024/03/16 01:36:07;;;;;;;3.17;2.23;;;;;;;;;;5036213;28;20177;-85
2024/03/16 01:39:13;;;;;;;3.13;2.10;;;;;;;;;;5035741;28;20184;-85
2024/03/16 01:42:17;;;;;;;4.73;2.40;;;;;;;;;;5034726;28;20181;-85
2024/03/16 01:45:21;;;;;;;4.43;1.50;;;;;;;;;;5035053;28;20185;-85
2024/03/16 01:48:25;;;;;;;1.70;1.60;;;;;;;;;;5035963;28;20181;-85
2024/03/16 01:51:30;;;;;;;4.23;1.73;;;;;;;;;;5033730;28;20208;-85
2024/03/16 01:54:35;;;;;;;2.93;1.50;;;;;;;;;;5022335;28;20185;-85
2024/03/16 01:57:39;;;;;;;2.30;1.70;;;;;;;;;;5033479;28;20177;-85
2024/03/16 02:00:47;;;;;;;4.63;1.70;;;;;;;;;;5033220;28;20646;-85
2024/03/16 02:03:51;;;;;;;3.30;2.00;;;;;;;;;;5021968;28;20701;-85
2024/03/16 02:06:55;;;;;;;3.10;1.90;;;;;;;;;;5021968;28;20178;-85
2024/03/16 02:10:00;;;;;;;2.97;1.77;;;;;;;;;;5033392;28;20569;-85
2024/03/16 02:13:04;;;;;;;2.90;2.20;;;;;;;;;;5034013;28;20209;-85
2024/03/16 02:16:08;;;;;;;3.00;2.07;;;;;;;;;;5033927;28;20542;-85
2024/03/16 02:19:12;;;;;;;2.93;1.93;;;;;;;;;;5033518;28;20177;-84
2024/03/16 02:22:17;;;;;;;4.37;2.00;;;;;;;;;;5033809;28;20638;-85
2024/03/16 02:25:22;;;;;;;2.37;1.70;;;;;;;;;;5035090;28;20185;-84
2024/03/16 02:28:26;;;;;;;2.87;1.83;;;;;;;;;;5036746;28;20180;-85
2024/03/16 02:31:30;;;;;;;2.53;1.90;;;;;;;;;;5035762;28;20204;-85
2024/03/16 02:34:36;;;;;;;2.90;1.90;;;;;;;;;;5033987;28;20181;-84
2024/03/16 02:37:40;;;;;;;2.33;1.60;;;;;;;;;;5033854;28;20573;-85
2024/03/16 02:40:44;;;;;;;3.00;1.87;;;;;;;;;;5034115;28;20188;-84
2024/03/16 02:43:48;;;;;;;3.77;1.80;;;;;;;;;;5034141;28;20697;-85
2024/03/16 02:46:53;;;;;;;3.63;1.97;;;;;;;;;;5033434;28;20172;-85
2024/03/16 02:49:57;;;;;;;1.70;1.50;;;;;;;;;;5033277;28;20177;-84
2024/03/16 02:53:01;;;;;;;1.30;1.13;;;;;;;;;;5033943;28;20223;-85
2024/03/16 02:56:05;;;;;;;2.10;1.50;;;;;;;;;;5033985;28;20180;-85
2024/03/16 02:59:10;;;;;;;1.80;1.40;;;;;;;;;;5033219;28;20180;-85
2024/03/16 03:02:13;;;;;;;2.23;1.10;;;;;;;;;;5032981;28;20176;-85
2024/03/16 03:05:20;;;;;;;0.80;0.80;;;;;;;;;;5033680;28;20185;-85
2024/03/16 03:08:24;;;;;;;1.43;0.70;;;;;;;;;;5033709;28;20177;-84
2024/03/16 03:11:29;;;;;;;0.67;0.60;;;;;;;;;;5033581;28;20208;-85
2024/03/16 03:14:33;;;;;;;1.60;0.60;;;;;;;;;;5033618;28;20173;-85
2024/03/16 03:17:38;;;;;;;1.07;0.50;;;;;;;;;;5021540;28;20180;-85
2024/03/16 03:20:43;;;;;;;0.90;0.67;;;;;;;;;;5021474;28;20173;-85
2024/03/16 03:23:47;;;;;;;0.93;0.60;;;;;;;;;;5032428;28;20224;-85
2024/03/16 03:26:51;;;;;;;0.50;0.43;;;;;;;;;;5032467;28;20630;-85
2024/03/16 03:29:55;;;;;;;0.97;0.57;;;;;;;;;;5033206;28;20177;-85
2024/03/16 03:32:59;;;;;;;0.60;0.60;;;;;;;;;;5033055;28;20232;-85
2024/03/16 03:36:04;;;;;;;0.57;0.50;;;;;;;;;;5032642;28;20176;-85
2024/03/16 03:39:08;;;;;;;0.70;0.43;;;;;;;;;;5021200;28;20173;-85
2024/03/16 03:42:12;;;;;;;0.63;0.50;;;;;;;;;;5032466;28;20181;-87
2024/03/16 03:45:37;;;;;;;1.90;0.60;;;;;;;;;;5032068;28;20549;-87
2024/03/16 03:48:43;;;;;;;0.40;0.40;;;;;;;;;;5035758;28;20181;-87
2024/03/16 03:51:47;;;;;;;1.27;0.40;;;;;;;;;;5035395;28;20208;-87
2024/03/16 03:54:51;;;;;;;0.93;0.50;;;;;;;;;;5024286;28;20526;-87
2024/03/16 03:57:55;;;;;;;0.50;0.50;;;;;;;;;;5024288;28;20518;-85
2024/03/16 04:01:00;;;;;;;0.50;0.40;;;;;;;;;;5036398;28;20185;-85
2024/03/16 04:04:04;;;;;;;0.67;0.40;;;;;;;;;;5035847;28;20217;-85
2024/03/16 04:07:09;;;;;;;0.53;0.40;;;;;;;;;;5036161;28;20185;-85
2024/03/16 04:10:13;;;;;;;0.37;0.37;;;;;;;;;;5036134;28;20181;-85
2024/03/16 04:13:17;;;;;;;0.40;0.40;;;;;;;;;;5036507;28;20224;-86
2024/03/16 04:16:21;;;;;;;0.73;0.40;;;;;;;;;;5035129;28;20177;-86
2024/03/16 04:19:25;;;;;;;0.50;0.50;;;;;;;;;;5035110;28;20181;-86
2024/03/16 04:22:29;;;;;;;0.73;0.50;;;;;;;;;;5035477;28;20212;-86
2024/03/16 04:25:34;;;;;;;0.97;0.50;;;;;;;;;;5071647;22;20233;-86
2024/03/16 04:28:38;;;;;;;0.43;0.30;;;;;;;;;;5001686;28;20177;-85
2024/03/16 04:31:42;;;;;;;2.53;0.50;;;;;;;;;;5012004;28;20213;-86
2024/03/16 04:34:46;;;;;;;0.37;0.30;;;;;;;;;;5001274;28;20186;-85
2024/03/16 04:37:52;;;;;;;2.73;0.37;;;;;;;;;;5012407;28;20540;-86
2024/03/16 04:40:57;;;;;;;0.60;0.40;;;;;;;;;;4990322;28;20173;-86
2024/03/16 04:44:02;;;;;;;1.60;1.30;;;;;;;;;;5001680;28;20178;-85
2024/03/16 04:47:06;;;;;;;0.30;0.30;;;;;;;;;;5012332;28;20181;-86
2024/03/16 04:50:11;;;;;;;0.30;0.30;;;;;;;;;;5023602;28;20174;-86
2024/03/16 04:53:15;;;;;;;0.40;0.30;;;;;;;;;;5000643;28;20209;-86
2024/03/16 04:56:19;;;;;;;1.67;0.30;;;;;;;;;;5000465;28;20216;-86
2024/03/16 04:59:24;;;;;;;0.37;0.30;;;;;;;;;;5000400;28;20181;-86
2024/03/16 05:02:28;;;;;;;0.60;0.40;;;;;;;;;;5000254;28;20178;-86
2024/03/16 05:05:33;;;;;;;1.37;0.40;;;;;;;;;;5023415;28;20217;-85
2024/03/16 05:08:37;;;;;;;0.30;0.30;;;;;;;;;;5011217;28;20174;-85
2024/03/16 05:11:41;;;;;;;0.40;0.30;;;;;;;;;;5010460;28;20185;-85
2024/03/16 05:14:45;;;;;;;0.63;0.40;;;;;;;;;;4998736;28;20174;-86
2024/03/16 05:17:49;;;;;;;0.40;0.40;;;;;;;;;;4998752;28;20178;-86
2024/03/16 05:20:54;;;;;;;0.40;0.40;;;;;;;;;;4998384;28;20177;-86
2024/03/16 05:23:59;;;;;;;0.43;0.33;;;;;;;;;;5022060;28;20177;-85
2024/03/16 05:27:04;;;;;;;0.30;0.30;;;;;;;;;;5022129;28;20205;-87
2024/03/16 05:30:09;;;;;;;0.40;0.40;;;;;;;;;;5010435;28;20173;-85
2024/03/16 05:33:14;;;;;;;0.40;0.40;;;;;;;;;;4999304;28;20205;-85
2024/03/16 05:36:18;;;;;;;0.40;0.40;;;;;;;;;;4998822;28;20213;-85
2024/03/16 05:39:23;;;;;;;0.30;0.30;;;;;;;;;;4998517;28;20219;-86
2024/03/16 05:42:27;;;;;;;0.50;0.40;;;;;;;;;;5009639;28;20546;-86
2024/03/16 05:45:31;;;;;;;0.40;0.40;;;;;;;;;;4988556;28;20209;-85
2024/03/16 05:48:35;;;;;;;1.57;0.40;;;;;;;;;;4987844;28;20181;-85
2024/03/16 05:51:40;;;;;;;0.50;0.40;;;;;;;;;;5010257;28;20182;-85
2024/03/16 05:54:44;;;;;;;0.50;0.50;;;;;;;;;;5009895;28;20670;-86
2024/03/16 05:57:48;;;;;;;0.60;0.40;;;;;;;;;;4999276;28;20178;-86
2024/03/16 06:00:53;;;;;;;0.40;0.40;;;;;;;;;;4998796;28;20185;-85
2024/03/16 06:03:57;;;;;;;30.90;17.10;;;;;;;;;;4987523;28;20173;-86
2024/03/16 06:07:02;;;;;;;7.57;4.60;;;;;;;;;;5021741;28;20217;-87
2024/03/16 06:10:10;;;;;;;1.50;0.90;;;;;;;;;;4987090;28;20182;-85
2024/03/16 06:13:14;;;;;;;0.80;0.60;;;;;;;;;;5022726;28;20210;-86
2024/03/16 06:16:21;;;;;;;2.20;0.80;;;;;;;;;;5009902;28;20217;-85
2024/03/16 06:19:25;;;;;;;33.70;21.83;;;;;;;;;;5022008;28;20186;-86
2024/03/16 06:22:29;;;;;;;7.03;5.10;;;;;;;;;;4987216;28;20177;-86
2024/03/16 06:25:46;;;;;;;8.07;5.10;;;;;;;;;;4997740;28;20224;-85
2024/03/16 06:28:56;;;;;;;10.07;6.87;;;;;;;;;;4998742;28;20182;-86
2024/03/16 06:32:06;;;;;;;17.77;11.60;;;;;;;;;;4998553;28;20178;-85
2024/03/16 06:35:11;;;;;;;8.33;4.67;;;;;;;;;;5018483;28;20216;-86
2024/03/16 06:38:15;;;;;;;9.60;7.47;;;;;;;;;;5006333;28;20634;-86
2024/03/16 06:41:19;;;;;;;4.03;3.17;;;;;;;;;;5005182;28;20181;-85
2024/03/16 06:44:23;;;;;;;2.43;2.23;;;;;;;;;;4994598;28;20181;-86
2024/03/16 06:47:30;;;;;;;2.40;1.40;;;;;;;;;;5017240;28;20181;-86
2024/03/16 06:50:36;;;;;;;1.77;1.40;;;;;;;;;;4993427;28;20173;-87
2024/03/16 06:53:40;;;;;;;0.60;0.60;;;;;;;;;;5005292;28;20213;-87
2024/03/16 06:56:44;;;;;;;0.47;0.40;;;;;;;;;;4987611;28;20217;-86
2024/03/16 06:59:48;;;;;;;0.83;0.40;;;;;;;;;;4996462;28;20181;-86
2024/03/16 07:02:52;;;;;;;0.93;0.70;;;;;;;;;;5005672;28;20173;-86
2024/03/16 07:05:57;;;;;;;0.67;0.50;;;;;;;;;;5017278;28;20566;-86
2024/03/16 07:09:03;;;;;;;0.90;0.50;;;;;;;;;;5002595;28;20182;-86
2024/03/16 07:13:02;;;;;;;4.97;4.20;;;;;;;;;;5014214;28;20178;-87
2024/03/16 07:16:59;;;;;;;1.50;1.07;;;;;;;;;;4980627;28;20247;-87
2024/03/16 07:20:07;;;;;;;1.03;0.97;;;;;;;;;;5002212;28;20186;-86
2024/03/16 07:23:11;;;;;;;1.10;0.90;;;;;;;;;;5006055;28;20181;-86
2024/03/16 07:26:16;;;;;;;1.43;0.80;;;;;;;;;;5017990;28;20725;-86
2024/03/16 07:29:19;;;;;;;1.40;0.60;;;;;;;;;;5006751;28;20182;-86
2024/03/16 07:32:29;;;;;;;0.90;0.67;;;;;;;;;;4994615;28;20181;-86
2024/03/16 07:36:27;;;;;;;1.70;0.60;;;;;;;;;;4994056;28;20213;-86
2024/03/16 07:39:37;;;;;;;1.07;0.70;;;;;;;;;;5005974;28;20177;-86
2024/03/16 07:42:42;;;;;;;2.27;1.00;;;;;;;;;;4994454;28;20174;-86
2024/03/16 07:45:51;;;;;;;1.50;0.80;;;;;;;;;;4995356;28;20709;-85
2024/03/16 07:49:07;;;;;;;0.77;0.60;;;;;;;;;;5005672;28;20173;-87
2024/03/16 07:52:33;;;;;;;3.17;1.23;;;;;;;;;;4994509;28;20178;-86
2024/03/16 07:55:38;;;;;;;1.30;0.80;;;;;;;;;;5019231;28;20221;-85
2024/03/16 07:58:42;;;;;;;1.37;1.00;;;;;;;;;;4995526;28;20186;-85
2024/03/16 08:01:46;;;;;;;2.50;1.30;;;;;;;;;;5020045;28;20178;-86
2024/03/16 08:04:51;;;;;;;2.33;0.83;;;;;;;;;;5007101;28;20178;-86
2024/03/16 08:07:55;;;;;;;1.57;1.03;;;;;;;;;;4995500;28;20638;-86
2024/03/16 08:10:59;;;;;;;1.00;0.60;;;;;;;;;;4994917;28;20650;-86
2024/03/16 08:14:05;;;;;;;1.87;1.33;;;;;;;;;;5011039;28;20209;-85
2024/03/16 08:17:09;;;;;;;14.43;9.47;;;;;;;;;;4987975;28;20182;-85
2024/03/16 08:20:15;;;;;;;3.83;2.43;;;;;;;;;;5009581;28;20186;-86
2024/03/16 08:23:19;;;;;;;1.73;0.80;;;;;;;;;;5009938;28;20173;-86
2024/03/16 08:26:23;;;;;;;1.23;0.77;;;;;;;;;;4998530;28;20225;-85
2024/03/16 08:29:27;;;;;;;2.93;0.87;;;;;;;;;;4999273;28;20177;-86
2024/03/16 08:32:31;;;;;;;0.87;0.60;;;;;;;;;;5009498;28;20182;-85
2024/03/16 08:35:36;;;;;;;2.00;0.67;;;;;;;;;;5009808;28;20209;-85
2024/03/16 08:38:39;;;;;;;1.77;0.97;;;;;;;;;;5009783;28;20177;-85
2024/03/16 08:41:44;;;;;;;1.10;0.77;;;;;;;;;;4996541;28;20181;-86
2024/03/16 08:44:48;;;;;;;1.00;0.80;;;;;;;;;;5005502;28;20177;-86
2024/03/16 08:47:51;;;;;;;1.43;0.80;;;;;;;;;;5006093;28;20185;-86
2024/03/16 08:50:59;;;;;;;1.90;0.90;;;;;;;;;;5018457;28;20186;-86
2024/03/16 08:54:05;;;;;;;1.67;0.70;;;;;;;;;;5005730;28;20205;-85
2024/03/16 08:57:09;;;;;;;1.30;0.60;;;;;;;;;;5006032;28;20534;-86
2024/03/16 09:00:14;;;;;;;1.40;0.63;;;;;;;;;;5017706;28;20181;-86
2024/03/16 09:03:18;;;;;;;1.57;0.80;;;;;;;;;;4994285;28;20178;-85
2024/03/16 09:06:22;;;;;;;0.93;0.77;;;;;;;;;;4983476;28;20220;-84
2024/03/16 09:09:27;;;;;;;1.13;0.77;;;;;;;;;;5018003;28;20181;-85
2024/03/16 09:12:31;;;;;;;2.97;0.87;;;;;;;;;;4995710;28;20178;-85
2024/03/16 09:15:35;;;;;;;1.07;0.70;;;;;;;;;;4995923;28;20217;-84
2024/03/16 09:18:40;;;;;;;3.10;0.90;;;;;;;;;;4994618;28;20173;-86
2024/03/16 09:21:47;;;;;;;2.10;0.90;;;;;;;;;;4996749;28;20520;-87
2024/03/16 09:24:55;;;;;;;2.13;0.73;;;;;;;;;;5006933;28;20178;-85
2024/03/16 09:28:07;;;;;;;1.07;0.70;;;;;;;;;;5011671;28;20182;-86
2024/03/16 09:31:14;;;;;;;0.90;0.60;;;;;;;;;;5005944;28;20182;-85
2024/03/16 09:34:23;;;;;;;0.93;0.67;;;;;;;;;;4994748;28;20213;-86
2024/03/16 09:37:32;;;;;;;1.83;0.70;;;;;;;;;;4983337;28;20190;-85
2024/03/16 09:40:45;;;;;;;1.73;0.53;;;;;;;;;;4993550;28;20185;-86
2024/03/16 09:43:50;;;;;;;2.77;0.80;;;;;;;;;;5016002;28;20178;-86
2024/03/16 09:47:02;;;;;;;2.17;0.80;;;;;;;;;;4993662;28;20225;-86
2024/03/16 09:50:08;;;;;;;1.57;0.80;;;;;;;;;;4995179;28;20181;-86
2024/03/16 09:53:31;;;;;;;2.03;0.80;;;;;;;;;;5017745;28;20217;-86
2024/03/16 09:56:40;;;;;;;1.93;0.87;;;;;;;;;;4991568;28;20221;-86
2024/03/16 09:59:49;;;;;;;2.40;0.60;;;;;;;;;;5003314;28;20185;-86
2024/03/16 10:02:53;;;;;;;1.60;1.03;;;;;;;;;;4981438;28;20205;-86
2024/03/16 10:05:59;;;;;;;1.80;0.70;;;;;;;;;;5003324;28;20213;-86
2024/03/16 10:09:15;;;;;;;1.10;0.80;;;;;;;;;;5017280;28;20177;-85
2024/03/16 10:12:23;;;;;;;1.43;0.80;;;;;;;;;;4973052;28;20183;-86
2024/03/16 10:15:28;;;;;;;1.53;0.70;;;;;;;;;;4961081;28;20206;-86
2024/03/16 10:18:34;;;;;;;1.63;0.80;;;;;;;;;;4961319;28;20528;-86
2024/03/16 10:21:41;;;;;;;1.47;0.70;;;;;;;;;;4995565;28;20178;-86
2024/03/16 10:24:46;;;;;;;1.93;1.00;;;;;;;;;;4973091;28;20662;-86
2024/03/16 10:27:50;;;;;;;4.97;0.90;;;;;;;;;;5044774;23;20233;-87
2024/03/16 10:30:54;;;;;;;1.57;0.60;;;;;;;;;;5013230;28;20169;-88
2024/03/16 10:34:01;;;;;;;1.97;0.70;;;;;;;;;;5024383;28;20551;-87
2024/03/16 10:37:08;;;;;;;1.00;0.70;;;;;;;;;;5024823;28;20220;-88
2024/03/16 10:40:14;;;;;;;2.90;0.70;;;;;;;;;;5032922;28;20180;-87
2024/03/16 10:43:18;;;;;;;2.77;0.90;;;;;;;;;;5033497;28;20668;-88
2024/03/16 10:46:24;;;;;;;2.30;0.60;;;;;;;;;;5033469;28;20220;-87
2024/03/16 10:49:29;;;;;;;3.17;0.80;;;;;;;;;;5032805;28;20181;-87
2024/03/16 10:52:34;;;;;;;1.43;0.80;;;;;;;;;;5032889;28;20184;-87
2024/03/16 10:55:39;;;;;;;1.27;0.70;;;;;;;;;;5034596;28;20181;-88
2024/03/16 10:58:43;;;;;;;2.60;0.90;;;;;;;;;;5036837;28;20181;-89
2024/03/16 11:01:51;;;;;;;3.10;0.97;;;;;;;;;;5002979;28;20539;-89
2024/03/16 11:05:02;;;;;;;2.13;0.80;;;;;;;;;;5047864;28;20177;-88
2024/03/16 11:08:09;;;;;;;2.83;1.00;;;;;;;;;;5036449;28;20181;-88
2024/03/16 11:11:23;;;;;;;0.90;0.70;;;;;;;;;;5036200;28;20181;-88
2024/03/16 11:14:28;;;;;;;2.23;0.70;;;;;;;;;;5036347;28;20200;-88
2024/03/16 11:17:32;;;;;;;3.17;0.77;;;;;;;;;;5036308;28;20216;-89
2024/03/16 11:20:39;;;;;;;2.20;0.73;;;;;;;;;;5037201;28;20180;-87
2024/03/16 11:23:43;;;;;;;4.10;0.90;;;;;;;;;;5037000;28;20641;-83
2024/03/16 11:26:49;;;;;;;1.77;0.80;;;;;;;;;;5039185;28;20228;-83
2024/03/16 11:30:00;;;;;;;4.90;1.20;;;;;;;;;;5049332;28;20645;-83
2024/03/16 11:33:17;;;;;;;7.00;1.37;;;;;;;;;;5039710;28;20181;-83
2024/03/16 11:36:23;;;;;;;2.60;0.77;;;;;;;;;;5037803;28;20534;-83
2024/03/16 11:39:28;;;;;;;2.57;0.60;;;;;;;;;;5038134;28;20177;-80
2024/03/16 11:42:32;;;;;;;0.60;0.50;;;;;;;;;;5040202;28;20177;-83
2024/03/16 11:45:39;;;;;;;1.30;0.60;;;;;;;;;;5051477;28;20169;-83
2024/03/16 11:48:44;;;;;;;2.17;0.70;;;;;;;;;;5041114;28;20185;-83
2024/03/16 11:51:49;;;;;;;2.10;0.57;;;;;;;;;;5038946;28;20184;-82
2024/03/16 11:54:52;;;;;;;0.33;0.30;;;;;;;;;;5050391;28;20208;-84
2024/03/16 11:57:57;;;;;;;1.00;0.50;;;;;;;;;;5037648;28;20220;-84
2024/03/16 12:01:02;;;;;;;0.80;0.63;;;;;;;;;;5025447;28;20177;-84
2024/03/16 12:04:07;;;;;;;3.20;0.50;;;;;;;;;;5038093;28;20177;-83
2024/03/16 12:07:12;;;;;;;2.27;0.60;;;;;;;;;;5037886;28;20612;-84
2024/03/16 12:10:16;;;;;;;1.23;0.60;;;;;;;;;;5039237;28;20180;-84
2024/03/16 12:13:20;;;;;;;0.77;0.40;;;;;;;;;;5039310;28;20622;-84
2024/03/16 12:16:25;;;;;;;1.80;0.50;;;;;;;;;;5037752;28;20213;-83
2024/03/16 12:19:32;;;;;;;0.87;0.40;;;;;;;;;;5035651;28;20185;-85
2024/03/16 12:22:43;;;;;;;0.80;0.50;;;;;;;;;;5035351;28;20181;-86
2024/03/16 12:25:48;;;;;;;0.90;0.50;;;;;;;;;;5035554;28;20173;-86
2024/03/16 12:28:51;;;;;;;0.77;0.50;;;;;;;;;;5036134;28;20633;-85
2024/03/16 12:31:56;;;;;;;1.67;0.60;;;;;;;;;;5037881;28;20180;-84
2024/03/16 12:35:01;;;;;;;1.27;0.40;;;;;;;;;;5037791;28;20204;-85
2024/03/16 12:38:07;;;;;;;1.13;0.70;;;;;;;;;;5046615;28;20181;-85
2024/03/16 12:41:11;;;;;;;0.50;0.40;;;;;;;;;;5035179;28;20189;-85
2024/03/16 12:44:17;;;;;;;1.90;0.50;;;;;;;;;;5035713;28;20177;-85
2024/03/16 12:47:21;;;;;;;0.40;0.40;;;;;;;;;;5035348;28;20689;-85
2024/03/16 12:50:25;;;;;;;1.10;0.40;;;;;;;;;;5035012;28;20180;-86
2024/03/16 12:53:31;;;;;;;0.57;0.40;;;;;;;;;;5035319;28;20184;-86
2024/03/16 12:56:47;;;;;;;1.43;0.30;;;;;;;;;;5035050;28;20554;-85
2024/03/16 12:59:51;;;;;;;0.60;0.30;;;;;;;;;;5036013;28;20181;-85
2024/03/16 13:02:55;;;;;;;1.23;0.47;;;;;;;;;;5034676;28;20180;-86
2024/03/16 13:05:59;;;;;;;0.53;0.50;;;;;;;;;;5023168;28;20216;-85
2024/03/16 13:09:10;;;;;;;2.63;0.57;;;;;;;;;;5035421;28;20176;-82
2024/03/16 13:12:14;;;;;;;0.80;0.60;;;;;;;;;;5037952;28;20519;-87
2024/03/16 13:15:20;;;;;;;1.13;0.50;;;;;;;;;;5035614;28;20204;-84
2024/03/16 13:18:27;;;;;;;0.50;0.50;;;;;;;;;;5036600;28;20189;-86
2024/03/16 13:21:31;;;;;;;1.60;0.40;;;;;;;;;;5036544;28;20189;-85
2024/03/16 13:24:36;;;;;;;2.70;0.67;;;;;;;;;;5036485;28;20181;-85
2024/03/16 13:27:40;;;;;;;0.83;0.60;;;;;;;;;;5033810;28;20688;-87
2024/03/16 13:30:46;;;;;;;1.40;0.60;;;;;;;;;;5034466;28;20637;-84
2024/03/16 13:33:50;;;;;;;0.87;0.70;;;;;;;;;;5024412;28;20181;-84
2024/03/16 13:36:54;;;;;;;1.77;0.60;;;;;;;;;;5034840;28;20213;-84
2024/03/16 13:39:58;;;;;;;1.10;0.60;;;;;;;;;;5035922;28;20185;-84
2024/03/16 13:43:03;;;;;;;1.43;0.70;;;;;;;;;;5033939;28;20181;-86
2024/03/16 13:46:07;;;;;;;0.90;0.57;;;;;;;;;;5022422;28;20209;-87
2024/03/16 13:49:15;;;;;;;1.40;0.63;;;;;;;;;;5045272;28;20622;-87
2024/03/16 13:52:20;;;;;;;1.37;0.70;;;;;;;;;;5033562;28;20185;-87
2024/03/16 13:55:25;;;;;;;1.10;0.77;;;;;;;;;;5033371;28;20217;-87
2024/03/16 13:58:30;;;;;;;2.03;0.67;;;;;;;;;;5033634;28;20621;-87
2024/03/16 14:01:34;;;;;;;1.23;0.53;;;;;;;;;;5022241;28;20188;-87
2024/03/16 14:04:38;;;;;;;1.70;0.60;;;;;;;;;;5032887;28;20177;-87
2024/03/16 14:07:42;;;;;;;0.80;0.50;;;;;;;;;;5033981;28;20216;-86
2024/03/16 14:10:46;;;;;;;2.30;0.70;;;;;;;;;;5033511;28;20177;-86
2024/03/16 14:13:50;;;;;;;2.57;0.60;;;;;;;;;;5022443;28;20200;-86
2024/03/16 14:16:55;;;;;;;1.60;0.73;;;;;;;;;;5033017;28;20217;-86
2024/03/16 14:19:58;;;;;;;1.00;0.53;;;;;;;;;;5034771;28;20188;-86
2024/03/16 14:23:03;;;;;;;0.67;0.47;;;;;;;;;;5022261;28;20188;-86
2024/03/16 14:26:07;;;;;;;1.37;0.60;;;;;;;;;;5033100;28;20703;-85
2024/03/16 14:29:12;;;;;;;7.03;3.63;;;;;;;;;;5021971;28;20188;-86
2024/03/16 14:32:16;;;;;;;2.40;1.60;;;;;;;;;;5044401;28;20181;-86
2024/03/16 14:35:20;;;;;;;1.97;0.80;;;;;;;;;;5033336;28;20554;-86
2024/03/16 14:38:25;;;;;;;0.80;0.67;;;;;;;;;;5033906;28;20180;-86
2024/03/16 14:41:30;;;;;;;2.50;0.60;;;;;;;;;;5022887;28;20176;-86
2024/03/16 14:44:34;;;;;;;2.13;0.77;;;;;;;;;;5033675;28;20181;-86
2024/03/16 14:47:38;;;;;;;1.07;0.70;;;;;;;;;;5033338;28;20216;-86
2024/03/16 14:50:42;;;;;;;2.83;0.70;;;;;;;;;;5022122;28;20185;-86
2024/03/16 14:53:46;;;;;;;1.50;0.70;;;;;;;;;;5033813;28;20181;-86
2024/03/16 14:56:50;;;;;;;1.33;0.70;;;;;;;;;;5033801;28;20213;-86
2024/03/16 14:59:54;;;;;;;1.13;1.00;;;;;;;;;;5034129;28;20180;-85
2024/03/16 15:03:01;;;;;;;1.90;0.87;;;;;;;;;;5034337;28;20177;-85
2024/03/16 15:06:05;;;;;;;1.60;0.87;;;;;;;;;;5034337;28;20212;-85
2024/03/16 15:09:09;;;;;;;5.03;0.70;;;;;;;;;;5021819;28;20185;-85
2024/03/16 15:12:13;;;;;;;0.93;0.63;;;;;;;;;;5033798;28;20177;-86
2024/03/16 15:15:17;;;;;;;1.77;0.77;;;;;;;;;;5021600;28;20216;-88
2024/03/16 15:18:23;;;;;;;1.77;0.80;;;;;;;;;;5026616;28;20181;-88
2024/03/16 15:21:29;;;;;;;18.67;11.07;;;;;;;;;;5029467;28;20184;-88
2024/03/16 15:24:36;;;;;;;2.60;1.03;;;;;;;;;;5039861;28;20192;-88
2024/03/16 15:28:08;;;;;;;1.93;1.57;;;;;;;;;;5015465;28;20220;-85
2024/03/16 15:31:10;;;;;;;1.20;1.00;;;;;;;;;;5035727;28;20173;-90
2024/03/16 15:34:18;;;;;;;1.30;0.97;;;;;;;;;;5038310;28;20181;-88
2024/03/16 15:37:22;;;;;;;1.70;1.23;;;;;;;;;;5038221;28;20212;-88
2024/03/16 15:40:29;;;;;;;38.37;22.20;;;;;;;;;;5026549;28;20177;-88
2024/03/16 15:43:33;;;;;;;29.00;18.77;;;;;;;;;;5030343;28;20196;-88
2024/03/16 15:46:37;;;;;;;23.47;16.90;;;;;;;;;;5041868;28;20585;-88
2024/03/16 15:49:42;;;;;;;12.20;9.73;;;;;;;;;;5041964;28;20192;-88
2024/03/16 15:52:46;;;;;;;10.23;8.37;;;;;;;;;;5043614;28;20189;-87
2024/03/16 15:55:52;;;;;;;11.30;7.43;;;;;;;;;;5042818;28;20212;-87
2024/03/16 15:58:59;;;;;;;4.13;3.30;;;;;;;;;;5042851;28;20189;-88
2024/03/16 16:02:03;;;;;;;4.13;3.73;;;;;;;;;;5028454;28;20181;-88
2024/03/16 16:05:07;;;;;;;6.50;3.03;;;;;;;;;;5029067;28;20177;-88
2024/03/16 16:08:12;;;;;;;1.87;1.60;;;;;;;;;;5041962;28;20633;-88
2024/03/16 16:11:17;;;;;;;3.43;1.93;;;;;;;;;;5041382;28;20181;-89
2024/03/16 16:14:21;;;;;;;1.13;1.00;;;;;;;;;;5036799;28;20181;-87
2024/03/16 16:17:25;;;;;;;2.57;1.43;;;;;;;;;;5037925;28;20538;-88
2024/03/16 16:20:29;;;;;;;1.43;0.93;;;;;;;;;;5038230;28;20176;-88
2024/03/16 16:23:34;;;;;;;0.90;0.60;;;;;;;;;;5036305;28;20626;-88
2024/03/16 16:26:38;;;;;;;2.60;0.60;;;;;;;;;;5037158;28;20224;-89
2024/03/16 16:29:42;;;;;;;1.03;0.53;;;;;;;;;;5048178;28;20180;-88
2024/03/16 16:32:46;;;;;;;0.50;0.47;;;;;;;;;;5036208;28;20185;-88
2024/03/16 16:35:53;;;;;;;0.70;0.40;;;;;;;;;;5035385;28;20673;-87
2024/03/16 16:38:57;;;;;;;1.37;0.70;;;;;;;;;;5035703;28;20181;-87
2024/03/16 16:42:03;;;;;;;0.40;0.40;;;;;;;;;;5036101;28;20181;-87
2024/03/16 16:45:08;;;;;;;1.97;1.00;;;;;;;;;;5023782;28;20185;-87
2024/03/16 16:48:12;;;;;;;1.17;1.07;;;;;;;;;;5035741;28;20523;-87
2024/03/16 16:51:16;;;;;;;0.97;0.70;;;;;;;;;;5017639;28;20180;-87
2024/03/16 16:54:21;;;;;;;0.80;0.70;;;;;;;;;;5023904;28;20172;-85
2024/03/16 16:57:25;;;;;;;1.70;1.60;;;;;;;;;;5034945;28;20232;-87
2024/03/16 17:00:32;;;;;;;1.43;1.20;;;;;;;;;;5036891;28;20185;-83
2024/03/16 17:03:36;;;;;;;1.80;0.50;;;;;;;;;;5036594;28;20180;-84
2024/03/16 17:06:41;;;;;;;1.13;1.03;;;;;;;;;;5036888;28;20212;-85
2024/03/16 17:09:45;;;;;;;1.63;1.07;;;;;;;;;;5035764;28;20634;-85
2024/03/16 17:12:50;;;;;;;2.87;1.97;;;;;;;;;;5035863;28;20181;-82
2024/03/16 17:15:55;;;;;;;6.07;1.00;;;;;;;;;;5036417;28;20220;-82
2024/03/16 17:18:59;;;;;;;4.53;1.33;;;;;;;;;;5038149;28;20177;-85
2024/03/16 17:22:03;;;;;;;3.03;1.40;;;;;;;;;;5027613;28;20180;-83
2024/03/16 17:25:08;;;;;;;3.83;1.00;;;;;;;;;;5038392;28;20185;-82
2024/03/16 17:28:12;;;;;;;1.43;1.07;;;;;;;;;;5036965;28;20202;-83
2024/03/16 17:31:16;;;;;;;3.27;1.93;;;;;;;;;;5038442;28;20581;-83
2024/03/16 17:34:20;;;;;;;1.77;1.00;;;;;;;;;;5024831;28;20185;-85
2024/03/16 17:37:24;;;;;;;2.90;2.23;;;;;;;;;;5035280;28;20233;-85
2024/03/16 17:40:29;;;;;;;5.93;3.47;;;;;;;;;;5036497;28;20618;-85
2024/03/16 17:43:35;;;;;;;2.23;1.67;;;;;;;;;;5046544;28;20181;-85
2024/03/16 17:46:39;;;;;;;1.40;0.90;;;;;;;;;;5036100;28;20216;-85
2024/03/16 17:49:43;;;;;;;1.87;1.27;;;;;;;;;;5034834;28;20533;-85
2024/03/16 17:52:50;;;;;;;3.37;3.00;;;;;;;;;;5034933;28;20180;-85
2024/03/16 17:55:56;;;;;;;2.97;1.70;;;;;;;;;;5033941;28;20212;-85
2024/03/16 17:59:01;;;;;;;1.50;1.40;;;;;;;;;;5034629;28;20177;-85
2024/03/16 18:02:05;;;;;;;1.40;1.00;;;;;;;;;;5022941;28;20181;-85
2024/03/16 18:05:09;;;;;;;1.40;1.07;;;;;;;;;;5033295;28;20185;-85
2024/03/16 18:08:13;;;;;;;1.63;0.90;;;;;;;;;;5034790;28;20625;-85
2024/03/16 18:11:18;;;;;;;0.83;0.70;;;;;;;;;;5022838;28;20248;-85
2024/03/16 18:14:22;;;;;;;1.13;0.87;;;;;;;;;;5033913;28;20560;-85
2024/03/16 18:17:26;;;;;;;1.20;1.10;;;;;;;;;;5033513;28;20602;-85
2024/03/16 18:20:31;;;;;;;1.70;1.60;;;;;;;;;;5034464;28;20181;-85
2024/03/16 18:23:35;;;;;;;1.60;1.50;;;;;;;;;;5033269;28;20181;-85
2024/03/16 18:26:43;;;;;;;2.40;2.20;;;;;;;;;;5022335;28;20236;-85
2024/03/16 18:29:47;;;;;;;2.10;1.90;;;;;;;;;;5033647;28;20288;-85
2024/03/16 18:32:52;;;;;;;3.60;3.20;;;;;;;;;;5022843;28;20180;-85